sensor_id;sensor_type;location;lat;lon;timestamp;temperature;humidity
78315;SHT31;68596;52.080;4.662;2023-08-07T00:02:04;16.44;72.35
78315;SHT31;68596;52.080;4.662;2023-08-07T00:04:48;16.45;71.46
78315;SHT31;68596;52.080;4.662;2023-08-07T00:07:32;16.41;72.85
78315;SHT31;68596;52.080;4.662;2023-08-07T00:10:17;16.41;72.03
78315;SHT31;68596;52.080;4.662;2023-08-07T00:13:01;16.42;72.31
78315;SHT31;68596;52.080;4.662;2023-08-07T00:15:45;16.48;72.14
78315;SHT31;68596;52.080;4.662;2023-08-07T00:18:29;16.49;71.64
78315;SHT31;68596;52.080;4.662;2023-08-07T00:21:13;16.49;71.34
78315;SHT31;68596;52.080;4.662;2023-08-07T00:23:57;16.51;71.59
78315;SHT31;68596;52.080;4.662;2023-08-07T00:26:42;16.49;71.14
78315;SHT31;68596;52.080;4.662;2023-08-07T00:29:26;16.52;70.79
78315;SHT31;68596;52.080;4.662;2023-08-07T00:32:10;16.51;71.17
78315;SHT31;68596;52.080;4.662;2023-08-07T00:34:54;16.56;71.64
78315;SHT31;68596;52.080;4.662;2023-08-07T00:37:38;16.62;71.68
78315;SHT31;68596;52.080;4.662;2023-08-07T00:40:22;16.62;71.57
78315;SHT31;68596;52.080;4.662;2023-08-07T00:43:06;16.65;72.52
78315;SHT31;68596;52.080;4.662;2023-08-07T00:45:50;16.66;73.14
78315;SHT31;68596;52.080;4.662;2023-08-07T00:48:35;16.58;72.52
78315;SHT31;68596;52.080;4.662;2023-08-07T00:51:20;16.47;71.84
78315;SHT31;68596;52.080;4.662;2023-08-07T00:54:05;16.36;71.60
78315;SHT31;68596;52.080;4.662;2023-08-07T00:56:50;16.31;72.14
78315;SHT31;68596;52.080;4.662;2023-08-07T00:59:34;16.28;72.84
78315;SHT31;68596;52.080;4.662;2023-08-07T01:02:18;16.31;73.05
78315;SHT31;68596;52.080;4.662;2023-08-07T01:05:02;16.31;73.25
78315;SHT31;68596;52.080;4.662;2023-08-07T01:07:48;16.32;73.79
78315;SHT31;68596;52.080;4.662;2023-08-07T01:10:42;16.28;74.11
78315;SHT31;68596;52.080;4.662;2023-08-07T01:16:52;16.29;74.29
78315;SHT31;68596;52.080;4.662;2023-08-07T01:19:41;16.32;74.20
78315;SHT31;68596;52.080;4.662;2023-08-07T01:22:25;16.35;73.92
78315;SHT31;68596;52.080;4.662;2023-08-07T01:25:09;16.40;73.35
78315;SHT31;68596;52.080;4.662;2023-08-07T01:28:22;16.41;73.66
78315;SHT31;68596;52.080;4.662;2023-08-07T01:31:14;16.47;73.38
78315;SHT31;68596;52.080;4.662;2023-08-07T01:34:05;16.52;73.03
78315;SHT31;68596;52.080;4.662;2023-08-07T01:36:54;16.56;72.97
78315;SHT31;68596;52.080;4.662;2023-08-07T01:39:41;16.56;72.51
78315;SHT31;68596;52.080;4.662;2023-08-07T01:42:27;16.56;71.89
78315;SHT31;68596;52.080;4.662;2023-08-07T01:45:11;16.56;72.49
78315;SHT31;68596;52.080;4.662;2023-08-07T01:47:56;16.58;72.94
78315;SHT31;68596;52.080;4.662;2023-08-07T01:50:40;16.56;73.14
78315;SHT31;68596;52.080;4.662;2023-08-07T01:53:24;16.56;73.30
78315;SHT31;68596;52.080;4.662;2023-08-07T01:56:08;16.52;72.70
78315;SHT31;68596;52.080;4.662;2023-08-07T01:58:52;16.45;73.18
78315;SHT31;68596;52.080;4.662;2023-08-07T02:01:36;16.45;72.40
78315;SHT31;68596;52.080;4.662;2023-08-07T02:04:20;16.45;71.75
78315;SHT31;68596;52.080;4.662;2023-08-07T02:07:04;16.42;72.35
78315;SHT31;68596;52.080;4.662;2023-08-07T02:09:48;16.47;72.95
78315;SHT31;68596;52.080;4.662;2023-08-07T02:12:32;16.47;72.60
78315;SHT31;68596;52.080;4.662;2023-08-07T02:15:17;16.51;72.48
78315;SHT31;68596;52.080;4.662;2023-08-07T02:18:01;16.52;72.38
78315;SHT31;68596;52.080;4.662;2023-08-07T02:20:45;16.55;72.20
78315;SHT31;68596;52.080;4.662;2023-08-07T02:23:29;16.58;72.55
78315;SHT31;68596;52.080;4.662;2023-08-07T02:26:15;16.62;71.88
78315;SHT31;68596;52.080;4.662;2023-08-07T02:28:59;16.59;72.05
78315;SHT31;68596;52.080;4.662;2023-08-07T02:31:43;16.59;72.19
78315;SHT31;68596;52.080;4.662;2023-08-07T02:34:27;16.65;72.05
78315;SHT31;68596;52.080;4.662;2023-08-07T02:37:11;16.64;72.39
78315;SHT31;68596;52.080;4.662;2023-08-07T02:39:56;16.64;72.44
78315;SHT31;68596;52.080;4.662;2023-08-07T02:42:40;16.64;72.76
78315;SHT31;68596;52.080;4.662;2023-08-07T02:45:24;16.64;73.55
78315;SHT31;68596;52.080;4.662;2023-08-07T02:48:08;16.56;73.87
78315;SHT31;68596;52.080;4.662;2023-08-07T02:50:52;16.55;74.15
78315;SHT31;68596;52.080;4.662;2023-08-07T02:53:37;16.51;74.61
78315;SHT31;68596;52.080;4.662;2023-08-07T02:56:21;16.55;74.39
78315;SHT31;68596;52.080;4.662;2023-08-07T02:59:05;16.52;74.44
78315;SHT31;68596;52.080;4.662;2023-08-07T03:01:50;16.55;74.32
78315;SHT31;68596;52.080;4.662;2023-08-07T03:04:34;16.54;74.24
78315;SHT31;68596;52.080;4.662;2023-08-07T03:07:18;16.56;74.28
78315;SHT31;68596;52.080;4.662;2023-08-07T03:10:03;16.55;74.16
78315;SHT31;68596;52.080;4.662;2023-08-07T03:12:48;16.59;73.91
78315;SHT31;68596;52.080;4.662;2023-08-07T03:15:32;16.62;73.90
78315;SHT31;68596;52.080;4.662;2023-08-07T03:18:16;16.65;73.92
78315;SHT31;68596;52.080;4.662;2023-08-07T03:21:01;16.66;73.41
78315;SHT31;68596;52.080;4.662;2023-08-07T03:23:45;16.69;73.43
78315;SHT31;68596;52.080;4.662;2023-08-07T03:26:29;16.71;73.24
78315;SHT31;68596;52.080;4.662;2023-08-07T03:29:13;16.73;73.29
78315;SHT31;68596;52.080;4.662;2023-08-07T03:31:57;16.73;72.77
78315;SHT31;68596;52.080;4.662;2023-08-07T03:34:41;16.73;72.34
78315;SHT31;68596;52.080;4.662;2023-08-07T03:37:25;16.72;72.91
78315;SHT31;68596;52.080;4.662;2023-08-07T03:40:10;16.69;73.22
78315;SHT31;68596;52.080;4.662;2023-08-07T03:42:54;16.75;73.46
78315;SHT31;68596;52.080;4.662;2023-08-07T03:45:39;16.75;73.52
78315;SHT31;68596;52.080;4.662;2023-08-07T03:48:24;16.76;73.87
78315;SHT31;68596;52.080;4.662;2023-08-07T03:51:08;16.80;74.04
78315;SHT31;68596;52.080;4.662;2023-08-07T03:53:52;16.82;73.90
78315;SHT31;68596;52.080;4.662;2023-08-07T03:56:36;16.76;74.08
78315;SHT31;68596;52.080;4.662;2023-08-07T03:59:22;16.71;74.59
78315;SHT31;68596;52.080;4.662;2023-08-07T04:02:05;16.65;75.05
78315;SHT31;68596;52.080;4.662;2023-08-07T04:04:49;16.62;75.41
78315;SHT31;68596;52.080;4.662;2023-08-07T04:07:34;16.58;75.48
78315;SHT31;68596;52.080;4.662;2023-08-07T04:10:18;16.58;75.40
78315;SHT31;68596;52.080;4.662;2023-08-07T04:13:02;16.62;74.85
78315;SHT31;68596;52.080;4.662;2023-08-07T04:15:46;16.64;74.54
78315;SHT31;68596;52.080;4.662;2023-08-07T04:18:32;16.62;74.38
78315;SHT31;68596;52.080;4.662;2023-08-07T04:21:16;16.62;74.34
78315;SHT31;68596;52.080;4.662;2023-08-07T04:24:01;16.61;74.49
78315;SHT31;68596;52.080;4.662;2023-08-07T04:26:51;16.58;74.47
78315;SHT31;68596;52.080;4.662;2023-08-07T04:29:35;16.54;74.35
78315;SHT31;68596;52.080;4.662;2023-08-07T04:32:19;16.47;74.74
78315;SHT31;68596;52.080;4.662;2023-08-07T04:35:04;16.47;74.95
78315;SHT31;68596;52.080;4.662;2023-08-07T04:37:48;16.47;75.05
78315;SHT31;68596;52.080;4.662;2023-08-07T04:40:32;16.48;74.11
78315;SHT31;68596;52.080;4.662;2023-08-07T04:43:18;16.49;74.46
78315;SHT31;68596;52.080;4.662;2023-08-07T04:46:03;16.51;74.11
78315;SHT31;68596;52.080;4.662;2023-08-07T04:48:47;16.49;74.00
78315;SHT31;68596;52.080;4.662;2023-08-07T04:51:32;16.52;73.93
78315;SHT31;68596;52.080;4.662;2023-08-07T04:54:16;16.55;73.95
78315;SHT31;68596;52.080;4.662;2023-08-07T04:57:01;16.55;73.74
78315;SHT31;68596;52.080;4.662;2023-08-07T04:59:45;16.62;73.69
78315;SHT31;68596;52.080;4.662;2023-08-07T05:02:29;16.59;74.01
78315;SHT31;68596;52.080;4.662;2023-08-07T05:05:14;16.59;73.81
78315;SHT31;68596;52.080;4.662;2023-08-07T05:07:58;16.59;74.57
78315;SHT31;68596;52.080;4.662;2023-08-07T05:10:43;16.51;75.30
78315;SHT31;68596;52.080;4.662;2023-08-07T05:13:27;16.51;75.72
78315;SHT31;68596;52.080;4.662;2023-08-07T05:16:11;16.45;75.90
78315;SHT31;68596;52.080;4.662;2023-08-07T05:18:55;16.42;76.15
78315;SHT31;68596;52.080;4.662;2023-08-07T05:21:39;16.40;75.96
78315;SHT31;68596;52.080;4.662;2023-08-07T05:24:23;16.44;75.96
78315;SHT31;68596;52.080;4.662;2023-08-07T05:27:08;16.45;75.86
78315;SHT31;68596;52.080;4.662;2023-08-07T05:29:52;16.48;75.81
78315;SHT31;68596;52.080;4.662;2023-08-07T05:32:36;16.49;75.85
78315;SHT31;68596;52.080;4.662;2023-08-07T05:35:23;16.54;76.01
78315;SHT31;68596;52.080;4.662;2023-08-07T05:38:07;16.56;75.93
78315;SHT31;68596;52.080;4.662;2023-08-07T05:40:51;16.61;76.12
78315;SHT31;68596;52.080;4.662;2023-08-07T05:43:35;16.62;75.97
78315;SHT31;68596;52.080;4.662;2023-08-07T05:46:19;16.62;75.89
78315;SHT31;68596;52.080;4.662;2023-08-07T05:49:03;16.66;75.70
78315;SHT31;68596;52.080;4.662;2023-08-07T05:51:47;16.69;75.94
78315;SHT31;68596;52.080;4.662;2023-08-07T05:54:32;16.72;76.08
78315;SHT31;68596;52.080;4.662;2023-08-07T05:57:17;16.69;76.16
78315;SHT31;68596;52.080;4.662;2023-08-07T06:00:01;16.64;76.21
78315;SHT31;68596;52.080;4.662;2023-08-07T06:02:46;16.55;76.52
78315;SHT31;68596;52.080;4.662;2023-08-07T06:05:31;16.47;77.07
78315;SHT31;68596;52.080;4.662;2023-08-07T06:08:15;16.41;76.70
78315;SHT31;68596;52.080;4.662;2023-08-07T06:10:59;16.36;76.87
78315;SHT31;68596;52.080;4.662;2023-08-07T06:13:47;16.32;77.04
78315;SHT31;68596;52.080;4.662;2023-08-07T06:16:31;16.29;77.01
78315;SHT31;68596;52.080;4.662;2023-08-07T06:19:15;16.28;77.30
78315;SHT31;68596;52.080;4.662;2023-08-07T06:21:59;16.26;77.60
78315;SHT31;68596;52.080;4.662;2023-08-07T06:24:43;16.29;77.89
78315;SHT31;68596;52.080;4.662;2023-08-07T06:27:27;16.29;77.97
78315;SHT31;68596;52.080;4.662;2023-08-07T06:30:12;16.25;78.11
78315;SHT31;68596;52.080;4.662;2023-08-07T06:32:57;16.31;77.95
78315;SHT31;68596;52.080;4.662;2023-08-07T06:35:41;16.31;77.87
78315;SHT31;68596;52.080;4.662;2023-08-07T06:38:26;16.34;77.70
78315;SHT31;68596;52.080;4.662;2023-08-07T06:41:10;16.38;77.76
78315;SHT31;68596;52.080;4.662;2023-08-07T06:43:54;16.40;77.26
78315;SHT31;68596;52.080;4.662;2023-08-07T06:46:38;16.44;76.87
78315;SHT31;68596;52.080;4.662;2023-08-07T06:49:22;16.49;76.74
78315;SHT31;68596;52.080;4.662;2023-08-07T06:52:07;16.52;76.97
78315;SHT31;68596;52.080;4.662;2023-08-07T06:54:51;16.55;76.92
78315;SHT31;68596;52.080;4.662;2023-08-07T06:57:36;16.65;76.93
78315;SHT31;68596;52.080;4.662;2023-08-07T07:00:20;16.71;76.66
78315;SHT31;68596;52.080;4.662;2023-08-07T07:03:04;16.76;75.74
78315;SHT31;68596;52.080;4.662;2023-08-07T07:05:49;16.76;75.53
78315;SHT31;68596;52.080;4.662;2023-08-07T07:08:34;16.80;74.87
78315;SHT31;68596;52.080;4.662;2023-08-07T07:11:18;16.80;74.12
78315;SHT31;68596;52.080;4.662;2023-08-07T07:14:02;16.82;74.69
78315;SHT31;68596;52.080;4.662;2023-08-07T07:16:47;16.86;73.87
78315;SHT31;68596;52.080;4.662;2023-08-07T07:19:31;16.89;73.69
78315;SHT31;68596;52.080;4.662;2023-08-07T07:22:15;16.93;72.79
78315;SHT31;68596;52.080;4.662;2023-08-07T07:24:59;16.95;73.59
78315;SHT31;68596;52.080;4.662;2023-08-07T07:27:43;16.95;72.40
78315;SHT31;68596;52.080;4.662;2023-08-07T07:30:27;16.97;72.30
78315;SHT31;68596;52.080;4.662;2023-08-07T07:33:11;17.00;72.98
78315;SHT31;68596;52.080;4.662;2023-08-07T07:35:57;17.05;72.40
78315;SHT31;68596;52.080;4.662;2023-08-07T07:38:41;17.09;72.05
78315;SHT31;68596;52.080;4.662;2023-08-07T07:41:25;17.10;70.98
78315;SHT31;68596;52.080;4.662;2023-08-07T07:44:10;17.07;71.01
78315;SHT31;68596;52.080;4.662;2023-08-07T07:46:54;17.03;71.09
78315;SHT31;68596;52.080;4.662;2023-08-07T07:49:38;17.09;71.78
78315;SHT31;68596;52.080;4.662;2023-08-07T07:52:22;17.13;70.20
78315;SHT31;68596;52.080;4.662;2023-08-07T07:55:07;17.19;71.11
78315;SHT31;68596;52.080;4.662;2023-08-07T07:57:54;17.23;70.68
78315;SHT31;68596;52.080;4.662;2023-08-07T08:00:38;17.24;70.88
78315;SHT31;68596;52.080;4.662;2023-08-07T08:03:22;17.29;70.66
78315;SHT31;68596;52.080;4.662;2023-08-07T08:06:07;17.30;70.13
78315;SHT31;68596;52.080;4.662;2023-08-07T08:08:52;17.31;70.16
78315;SHT31;68596;52.080;4.662;2023-08-07T08:11:37;17.34;70.08
78315;SHT31;68596;52.080;4.662;2023-08-07T08:14:21;17.37;69.51
78315;SHT31;68596;52.080;4.662;2023-08-07T08:17:05;17.40;70.21
78315;SHT31;68596;52.080;4.662;2023-08-07T08:19:49;17.43;70.10
78315;SHT31;68596;52.080;4.662;2023-08-07T08:22:33;17.47;69.15
78315;SHT31;68596;52.080;4.662;2023-08-07T08:25:18;17.53;68.96
78315;SHT31;68596;52.080;4.662;2023-08-07T08:28:02;17.55;68.02
78315;SHT31;68596;52.080;4.662;2023-08-07T08:30:48;17.57;68.72
78315;SHT31;68596;52.080;4.662;2023-08-07T08:33:32;17.61;67.86
78315;SHT31;68596;52.080;4.662;2023-08-07T08:36:16;17.64;67.68
78315;SHT31;68596;52.080;4.662;2023-08-07T08:39:01;17.70;67.74
78315;SHT31;68596;52.080;4.662;2023-08-07T08:41:49;17.77;67.93
78315;SHT31;68596;52.080;4.662;2023-08-07T08:44:36;17.80;68.55
78315;SHT31;68596;52.080;4.662;2023-08-07T08:47:24;17.85;67.05
78315;SHT31;68596;52.080;4.662;2023-08-07T08:50:10;17.85;66.35
78315;SHT31;68596;52.080;4.662;2023-08-07T08:52:56;17.90;67.52
78315;SHT31;68596;52.080;4.662;2023-08-07T08:55:41;17.92;67.45
78315;SHT31;68596;52.080;4.662;2023-08-07T08:58:28;17.94;67.55
78315;SHT31;68596;52.080;4.662;2023-08-07T09:01:12;17.97;67.09
78315;SHT31;68596;52.080;4.662;2023-08-07T09:03:57;18.00;67.70
78315;SHT31;68596;52.080;4.662;2023-08-07T09:06:42;18.05;66.35
78315;SHT31;68596;52.080;4.662;2023-08-07T09:09:27;18.04;65.96
78315;SHT31;68596;52.080;4.662;2023-08-07T09:12:17;18.02;66.35
78315;SHT31;68596;52.080;4.662;2023-08-07T09:15:11;18.06;66.74
78315;SHT31;68596;52.080;4.662;2023-08-07T09:17:59;18.08;65.49
78315;SHT31;68596;52.080;4.662;2023-08-07T09:20:45;18.15;66.72
78315;SHT31;68596;52.080;4.662;2023-08-07T09:23:31;18.22;66.96
78315;SHT31;68596;52.080;4.662;2023-08-07T09:26:21;18.26;66.86
78315;SHT31;68596;52.080;4.662;2023-08-07T09:29:07;18.28;65.63
78315;SHT31;68596;52.080;4.662;2023-08-07T09:31:54;18.33;65.38
78315;SHT31;68596;52.080;4.662;2023-08-07T09:34:42;18.31;65.29
78315;SHT31;68596;52.080;4.662;2023-08-07T09:37:27;18.35;66.11
78315;SHT31;68596;52.080;4.662;2023-08-07T09:40:11;18.35;64.67
78315;SHT31;68596;52.080;4.662;2023-08-07T09:42:56;18.33;65.08
78315;SHT31;68596;52.080;4.662;2023-08-07T09:45:40;18.36;64.59
78315;SHT31;68596;52.080;4.662;2023-08-07T09:48:24;18.36;66.33
78315;SHT31;68596;52.080;4.662;2023-08-07T09:51:10;18.41;65.91
78315;SHT31;68596;52.080;4.662;2023-08-07T09:53:54;18.39;66.39
78315;SHT31;68596;52.080;4.662;2023-08-07T09:56:40;18.39;66.37
78315;SHT31;68596;52.080;4.662;2023-08-07T09:59:24;18.42;65.91
78315;SHT31;68596;52.080;4.662;2023-08-07T10:02:08;18.41;65.10
78315;SHT31;68596;52.080;4.662;2023-08-07T10:04:55;18.46;65.05
78315;SHT31;68596;52.080;4.662;2023-08-07T10:07:40;18.46;63.69
78315;SHT31;68596;52.080;4.662;2023-08-07T10:10:25;18.53;64.40
78315;SHT31;68596;52.080;4.662;2023-08-07T10:13:13;18.57;65.22
78315;SHT31;68596;52.080;4.662;2023-08-07T10:15:58;18.63;64.88
78315;SHT31;68596;52.080;4.662;2023-08-07T10:18:43;18.72;62.73
78315;SHT31;68596;52.080;4.662;2023-08-07T10:21:27;18.80;63.56
78315;SHT31;68596;52.080;4.662;2023-08-07T10:24:15;18.87;64.16
78315;SHT31;68596;52.080;4.662;2023-08-07T10:27:01;18.94;64.36
78315;SHT31;68596;52.080;4.662;2023-08-07T10:29:47;19.00;64.21
78315;SHT31;68596;52.080;4.662;2023-08-07T10:32:33;19.11;62.62
78315;SHT31;68596;52.080;4.662;2023-08-07T10:35:32;19.16;61.69
78315;SHT31;68596;52.080;4.662;2023-08-07T10:38:19;19.18;63.37
78315;SHT31;68596;52.080;4.662;2023-08-07T10:41:12;19.23;62.84
78315;SHT31;68596;52.080;4.662;2023-08-07T10:43:56;19.28;63.61
78315;SHT31;68596;52.080;4.662;2023-08-07T10:46:55;19.34;62.33
78315;SHT31;68596;52.080;4.662;2023-08-07T10:49:40;19.38;61.23
78315;SHT31;68596;52.080;4.662;2023-08-07T10:52:25;19.43;61.40
78315;SHT31;68596;52.080;4.662;2023-08-07T10:55:13;19.47;61.58
78315;SHT31;68596;52.080;4.662;2023-08-07T10:57:59;19.54;63.47
78315;SHT31;68596;52.080;4.662;2023-08-07T11:00:44;19.61;62.70
78315;SHT31;68596;52.080;4.662;2023-08-07T11:03:28;19.69;61.05
78315;SHT31;68596;52.080;4.662;2023-08-07T11:06:13;19.69;62.67
78315;SHT31;68596;52.080;4.662;2023-08-07T11:08:58;19.78;63.27
78315;SHT31;68596;52.080;4.662;2023-08-07T11:11:47;19.81;61.14
78315;SHT31;68596;52.080;4.662;2023-08-07T11:14:33;19.85;61.67
78315;SHT31;68596;52.080;4.662;2023-08-07T11:17:17;19.88;63.11
78315;SHT31;68596;52.080;4.662;2023-08-07T11:20:02;19.86;58.99
78315;SHT31;68596;52.080;4.662;2023-08-07T11:22:48;19.88;61.03
78315;SHT31;68596;52.080;4.662;2023-08-07T11:25:32;19.90;60.90
78315;SHT31;68596;52.080;4.662;2023-08-07T11:28:20;19.96;60.75
78315;SHT31;68596;52.080;4.662;2023-08-07T11:31:04;19.96;59.98
78315;SHT31;68596;52.080;4.662;2023-08-07T11:33:55;20.05;61.65
78315;SHT31;68596;52.080;4.662;2023-08-07T11:36:43;20.13;57.89
78315;SHT31;68596;52.080;4.662;2023-08-07T11:39:28;20.13;58.67
78315;SHT31;68596;52.080;4.662;2023-08-07T11:42:13;20.16;58.12
78315;SHT31;68596;52.080;4.662;2023-08-07T11:44:57;20.16;59.49
78315;SHT31;68596;52.080;4.662;2023-08-07T11:47:42;20.18;60.44
78315;SHT31;68596;52.080;4.662;2023-08-07T11:50:27;20.19;57.85
78315;SHT31;68596;52.080;4.662;2023-08-07T11:53:12;20.13;57.58
78315;SHT31;68596;52.080;4.662;2023-08-07T11:56:02;20.13;56.81
78315;SHT31;68596;52.080;4.662;2023-08-07T11:58:48;20.16;56.99
78315;SHT31;68596;52.080;4.662;2023-08-07T12:01:37;20.18;57.90
78315;SHT31;68596;52.080;4.662;2023-08-07T12:04:22;20.18;56.89
78315;SHT31;68596;52.080;4.662;2023-08-07T12:07:06;20.22;53.78
78315;SHT31;68596;52.080;4.662;2023-08-07T12:09:51;20.23;55.75
78315;SHT31;68596;52.080;4.662;2023-08-07T12:12:36;20.30;54.55
78315;SHT31;68596;52.080;4.662;2023-08-07T12:15:21;20.32;53.74
78315;SHT31;68596;52.080;4.662;2023-08-07T12:18:07;20.30;53.72
78315;SHT31;68596;52.080;4.662;2023-08-07T12:20:52;20.28;55.87
78315;SHT31;68596;52.080;4.662;2023-08-07T12:23:36;20.29;57.17
78315;SHT31;68596;52.080;4.662;2023-08-07T12:26:21;20.32;57.02
78315;SHT31;68596;52.080;4.662;2023-08-07T12:29:06;20.22;57.85
78315;SHT31;68596;52.080;4.662;2023-08-07T12:31:50;20.16;58.04
78315;SHT31;68596;52.080;4.662;2023-08-07T12:34:34;20.10;59.39
78315;SHT31;68596;52.080;4.662;2023-08-07T12:37:18;20.12;60.05
78315;SHT31;68596;52.080;4.662;2023-08-07T12:40:02;20.20;60.50
78315;SHT31;68596;52.080;4.662;2023-08-07T12:42:49;20.30;60.39
78315;SHT31;68596;52.080;4.662;2023-08-07T12:45:34;20.32;58.04
78315;SHT31;68596;52.080;4.662;2023-08-07T12:48:18;20.33;59.09
78315;SHT31;68596;52.080;4.662;2023-08-07T12:51:03;20.36;58.90
78315;SHT31;68596;52.080;4.662;2023-08-07T12:53:48;20.41;58.13
78315;SHT31;68596;52.080;4.662;2023-08-07T12:56:32;20.44;57.77
78315;SHT31;68596;52.080;4.662;2023-08-07T12:59:16;20.46;57.50
78315;SHT31;68596;52.080;4.662;2023-08-07T13:02:03;20.44;57.03
78315;SHT31;68596;52.080;4.662;2023-08-07T13:04:47;20.39;55.94
78315;SHT31;68596;52.080;4.662;2023-08-07T13:07:31;20.34;58.03
78315;SHT31;68596;52.080;4.662;2023-08-07T13:10:16;20.32;58.33
78315;SHT31;68596;52.080;4.662;2023-08-07T13:13:01;20.34;59.99
78315;SHT31;68596;52.080;4.662;2023-08-07T13:15:45;20.32;59.15
78315;SHT31;68596;52.080;4.662;2023-08-07T13:18:30;20.37;58.98
78315;SHT31;68596;52.080;4.662;2023-08-07T13:21:14;20.34;58.41
78315;SHT31;68596;52.080;4.662;2023-08-07T13:23:59;20.36;58.06
78315;SHT31;68596;52.080;4.662;2023-08-07T13:26:43;20.34;57.69
78315;SHT31;68596;52.080;4.662;2023-08-07T13:29:31;20.33;58.70
78315;SHT31;68596;52.080;4.662;2023-08-07T13:32:15;20.26;60.22
78315;SHT31;68596;52.080;4.662;2023-08-07T13:35:03;20.22;60.49
78315;SHT31;68596;52.080;4.662;2023-08-07T13:37:47;20.25;62.15
78315;SHT31;68596;52.080;4.662;2023-08-07T13:40:31;20.26;61.83
78315;SHT31;68596;52.080;4.662;2023-08-07T13:43:15;20.29;61.95
78315;SHT31;68596;52.080;4.662;2023-08-07T13:45:59;20.30;61.69
78315;SHT31;68596;52.080;4.662;2023-08-07T13:48:45;20.25;61.24
78315;SHT31;68596;52.080;4.662;2023-08-07T13:51:29;20.23;59.85
78315;SHT31;68596;52.080;4.662;2023-08-07T13:54:13;20.16;59.77
78315;SHT31;68596;52.080;4.662;2023-08-07T13:56:57;20.04;61.97
78315;SHT31;68596;52.080;4.662;2023-08-07T13:59:41;19.98;63.47
78315;SHT31;68596;52.080;4.662;2023-08-07T14:02:25;19.93;63.66
78315;SHT31;68596;52.080;4.662;2023-08-07T14:05:09;19.86;64.28
78315;SHT31;68596;52.080;4.662;2023-08-07T14:07:53;19.85;64.36
78315;SHT31;68596;52.080;4.662;2023-08-07T14:10:38;19.82;64.67
78315;SHT31;68596;52.080;4.662;2023-08-07T14:13:24;19.79;64.98
78315;SHT31;68596;52.080;4.662;2023-08-07T14:16:08;19.78;64.96
78315;SHT31;68596;52.080;4.662;2023-08-07T14:18:52;19.72;66.07
78315;SHT31;68596;52.080;4.662;2023-08-07T14:21:36;19.64;67.16
78315;SHT31;68596;52.080;4.662;2023-08-07T14:24:20;19.48;67.87
78315;SHT31;68596;52.080;4.662;2023-08-07T14:27:04;19.37;68.19
78315;SHT31;68596;52.080;4.662;2023-08-07T14:29:48;19.20;68.50
78315;SHT31;68596;52.080;4.662;2023-08-07T14:32:33;19.06;69.26
78315;SHT31;68596;52.080;4.662;2023-08-07T14:35:17;18.94;69.50
78315;SHT31;68596;52.080;4.662;2023-08-07T14:38:01;18.83;69.66
78315;SHT31;68596;52.080;4.662;2023-08-07T14:40:45;18.76;69.60
78315;SHT31;68596;52.080;4.662;2023-08-07T14:43:30;18.70;69.67
78315;SHT31;68596;52.080;4.662;2023-08-07T14:46:16;18.59;70.29
78315;SHT31;68596;52.080;4.662;2023-08-07T14:49:01;18.59;70.39
78315;SHT31;68596;52.080;4.662;2023-08-07T14:51:45;18.62;71.28
78315;SHT31;68596;52.080;4.662;2023-08-07T14:54:29;18.69;72.25
78315;SHT31;68596;52.080;4.662;2023-08-07T14:57:13;18.74;71.93
78315;SHT31;68596;52.080;4.662;2023-08-07T14:59:57;18.84;71.70
78315;SHT31;68596;52.080;4.662;2023-08-07T15:02:41;19.00;71.98
78315;SHT31;68596;52.080;4.662;2023-08-07T15:05:25;19.11;71.33
78315;SHT31;68596;52.080;4.662;2023-08-07T15:08:09;19.18;70.95
78315;SHT31;68596;52.080;4.662;2023-08-07T15:10:53;19.27;70.68
78315;SHT31;68596;52.080;4.662;2023-08-07T15:13:37;19.32;70.12
78315;SHT31;68596;52.080;4.662;2023-08-07T15:16:21;19.39;69.63
78315;SHT31;68596;52.080;4.662;2023-08-07T15:19:05;19.43;69.36
78315;SHT31;68596;52.080;4.662;2023-08-07T15:21:53;19.44;68.51
78315;SHT31;68596;52.080;4.662;2023-08-07T15:24:37;19.47;68.11
78315;SHT31;68596;52.080;4.662;2023-08-07T15:27:21;19.50;68.51
78315;SHT31;68596;52.080;4.662;2023-08-07T15:30:06;19.50;67.32
78315;SHT31;68596;52.080;4.662;2023-08-07T15:32:51;19.51;66.90
78315;SHT31;68596;52.080;4.662;2023-08-07T15:35:35;19.53;67.86
78315;SHT31;68596;52.080;4.662;2023-08-07T15:38:20;19.51;67.48
78315;SHT31;68596;52.080;4.662;2023-08-07T15:41:04;19.54;67.49
78315;SHT31;68596;52.080;4.662;2023-08-07T15:43:48;19.51;66.64
78315;SHT31;68596;52.080;4.662;2023-08-07T15:46:35;19.54;66.35
78315;SHT31;68596;52.080;4.662;2023-08-07T15:49:19;19.55;66.31
78315;SHT31;68596;52.080;4.662;2023-08-07T15:52:04;19.54;66.90
78315;SHT31;68596;52.080;4.662;2023-08-07T15:54:48;19.57;66.08
78315;SHT31;68596;52.080;4.662;2023-08-07T15:57:32;19.54;66.70
78315;SHT31;68596;52.080;4.662;2023-08-07T16:00:16;19.57;65.79
78315;SHT31;68596;52.080;4.662;2023-08-07T16:03:05;19.58;66.78
78315;SHT31;68596;52.080;4.662;2023-08-07T16:05:50;19.54;66.59
78315;SHT31;68596;52.080;4.662;2023-08-07T16:08:34;19.58;65.23
78315;SHT31;68596;52.080;4.662;2023-08-07T16:11:18;19.54;65.42
78315;SHT31;68596;52.080;4.662;2023-08-07T16:14:02;19.54;65.13
78315;SHT31;68596;52.080;4.662;2023-08-07T16:16:46;19.53;65.62
78315;SHT31;68596;52.080;4.662;2023-08-07T16:19:31;19.53;66.49
78315;SHT31;68596;52.080;4.662;2023-08-07T16:22:15;19.51;66.48
78315;SHT31;68596;52.080;4.662;2023-08-07T16:24:59;19.53;65.68
78315;SHT31;68596;52.080;4.662;2023-08-07T16:27:45;19.51;66.02
78315;SHT31;68596;52.080;4.662;2023-08-07T16:30:30;19.54;66.27
78315;SHT31;68596;52.080;4.662;2023-08-07T16:33:15;19.54;66.70
78315;SHT31;68596;52.080;4.662;2023-08-07T16:35:59;19.54;66.65
78315;SHT31;68596;52.080;4.662;2023-08-07T16:38:45;19.54;66.70
78315;SHT31;68596;52.080;4.662;2023-08-07T16:41:32;19.54;65.76
78315;SHT31;68596;52.080;4.662;2023-08-07T16:44:16;19.58;65.78
78315;SHT31;68596;52.080;4.662;2023-08-07T16:47:01;19.57;65.78
78315;SHT31;68596;52.080;4.662;2023-08-07T16:49:47;19.57;64.69
78315;SHT31;68596;52.080;4.662;2023-08-07T16:52:31;19.58;65.49
78315;SHT31;68596;52.080;4.662;2023-08-07T16:55:15;19.55;65.73
78315;SHT31;68596;52.080;4.662;2023-08-07T16:57:59;19.55;64.83
78315;SHT31;68596;52.080;4.662;2023-08-07T17:00:43;19.53;65.75
78315;SHT31;68596;52.080;4.662;2023-08-07T17:03:27;19.50;66.23
78315;SHT31;68596;52.080;4.662;2023-08-07T17:06:11;19.51;65.21
78315;SHT31;68596;52.080;4.662;2023-08-07T17:08:56;19.48;66.17
78315;SHT31;68596;52.080;4.662;2023-08-07T17:11:40;19.45;65.47
78315;SHT31;68596;52.080;4.662;2023-08-07T17:14:24;19.45;65.50
78315;SHT31;68596;52.080;4.662;2023-08-07T17:17:08;19.44;65.39
78315;SHT31;68596;52.080;4.662;2023-08-07T17:19:52;19.44;65.73
78315;SHT31;68596;52.080;4.662;2023-08-07T17:22:36;19.43;65.05
78315;SHT31;68596;52.080;4.662;2023-08-07T17:25:20;19.45;65.43